Time,TemperatureF,DewpointF,PressureIn,WindDirection,WindDirectionDegrees,WindSpeedMPH,WindSpeedGustMPH,Humidity,HourlyPrecipIn,Conditions,Clouds,dailyrainin,SoftwareType,DateUTC
2013-01-05 00:01:00,57.9,55.9,30.25,NNE,32,2.0,4.0,93,0.00,,,0.14,meteohub,2013-01-05 05:01:00,
2013-01-05 00:02:00,57.9,55.9,30.25,NNE,32,1.0,4.0,93,0.00,,,0.14,meteohub,2013-01-05 05:02:00,
2013-01-05 00:04:00,57.9,55.9,30.25,NNE,24,2.0,4.0,93,0.00,,,0.14,meteohub,2013-01-05 05:04:00,
2013-01-05 00:07:00,57.7,55.8,30.25,NNE,26,0.0,7.0,93,0.00,,,0.00,meteohub,2013-01-05 05:07:00,
2013-01-05 00:12:00,57.7,55.8,30.25,North,355,1.0,7.0,93,0.00,,,0.00,meteohub,2013-01-05 05:12:00,
2013-01-05 00:17:00,57.6,55.6,30.25,NNE,22,3.0,6.0,93,0.00,,,0.00,meteohub,2013-01-05 05:17:00,
2013-01-05 00:22:00,57.6,55.6,30.25,NNE,32,3.0,6.0,93,0.00,,,0.00,meteohub,2013-01-05 05:22:00,
2013-01-05 00:28:00,57.6,55.8,30.25,NE,37,2.0,6.0,94,0.00,,,0.00,meteohub,2013-01-05 05:28:00,
2013-01-05 00:34:00,57.6,55.8,30.25,ENE,64,2.0,6.0,94,0.00,,,0.00,meteohub,2013-01-05 05:34:00,
2013-01-05 00:40:00,57.6,55.6,30.24,North,9,4.0,6.0,93,0.00,,,0.00,meteohub,2013-01-05 05:40:00,
2013-01-05 00:47:00,57.6,55.6,30.24,NE,34,2.0,7.0,93,0.00,,,0.00,meteohub,2013-01-05 05:47:00,
2013-01-05 00:52:00,57.6,55.6,30.25,ENE,69,5.0,7.0,93,0.00,,,0.00,meteohub,2013-01-05 05:52:00,
2013-01-05 00:57:00,57.6,55.6,30.24,ENE,71,3.0,7.0,93,0.00,,,0.00,meteohub,2013-01-05 05:57:00,
2013-01-05 01:02:00,57.4,55.4,30.24,ENE,69,2.0,11.0,93,0.00,,,0.00,meteohub,2013-01-05 06:02:00,
2013-01-05 01:07:00,57.4,55.4,30.24,NNE,17,3.0,11.0,93,0.00,,,0.00,meteohub,2013-01-05 06:07:00,
2013-01-05 01:12:00,57.4,55.4,30.24,NNE,26,2.0,11.0,93,0.00,,,0.00,meteohub,2013-01-05 06:12:00,
2013-01-05 01:17:00,57.4,55.4,30.24,NNE,25,3.0,7.0,93,0.00,,,0.00,meteohub,2013-01-05 06:17:00,
2013-01-05 01:22:00,57.4,55.6,30.24,NNE,33,4.0,7.0,94,0.00,,,0.00,meteohub,2013-01-05 06:22:00,
2013-01-05 01:27:00,57.2,55.4,30.24,NE,52,3.0,5.0,94,0.00,,,0.00,meteohub,2013-01-05 06:27:00,
2013-01-05 01:32:00,57.2,55.4,30.24,NE,40,3.0,9.0,94,0.00,,,0.00,meteohub,2013-01-05 06:32:00,
2013-01-05 01:37:00,57.2,55.4,30.24,NNE,21,4.0,9.0,94,0.00,,,0.00,meteohub,2013-01-05 06:37:00,
2013-01-05 01:42:00,57.0,55.2,30.24,East,91,1.0,9.0,94,0.00,,,0.00,meteohub,2013-01-05 06:42:00,
2013-01-05 01:47:00,57.0,55.2,30.24,NE,53,4.0,5.0,94,0.00,,,0.00,meteohub,2013-01-05 06:47:00,
2013-01-05 01:52:00,56.8,55.2,30.23,NE,48,3.0,5.0,94,0.00,,,0.00,meteohub,2013-01-05 06:52:00,
2013-01-05 01:57:00,56.7,55.0,30.23,ENE,67,2.0,5.0,94,0.00,,,0.00,meteohub,2013-01-05 06:57:00,
2013-01-05 02:02:00,56.5,54.9,30.23,ENE,71,1.0,5.0,94,0.00,,,0.00,meteohub,2013-01-05 07:02:00,
2013-01-05 02:07:00,56.5,55.0,30.23,ENE,63,2.0,5.0,95,0.00,,,0.00,meteohub,2013-01-05 07:07:00,
2013-01-05 02:12:00,56.5,55.0,30.23,NE,51,2.0,5.0,95,0.00,,,0.00,meteohub,2013-01-05 07:12:00,
2013-01-05 02:17:00,56.1,54.7,30.23,ENE,58,1.0,5.0,95,0.00,,,0.00,meteohub,2013-01-05 07:17:00,
2013-01-05 02:22:00,56.1,54.7,30.23,ENE,58,0.0,5.0,95,0.00,,,0.00,meteohub,2013-01-05 07:22:00,
2013-01-05 02:27:00,56.1,54.7,30.23,ENE,61,3.0,4.0,95,0.00,,,0.00,meteohub,2013-01-05 07:27:00,
2013-01-05 02:32:00,56.1,54.7,30.23,ENE,70,2.0,5.0,95,0.00,,,0.00,meteohub,2013-01-05 07:32:00,
2013-01-05 02:37:00,56.1,54.7,30.23,ENE,67,2.0,5.0,95,0.00,,,0.00,meteohub,2013-01-05 07:37:00,
2013-01-05 02:42:00,56.1,54.7,30.23,ENE,60,3.0,5.0,95,0.00,,,0.00,meteohub,2013-01-05 07:42:00,
2013-01-05 02:47:00,56.1,54.7,30.22,ENE,66,2.0,5.0,95,0.00,,,0.00,meteohub,2013-01-05 07:47:00,
2013-01-05 02:52:00,56.1,54.7,30.22,East,86,5.0,7.0,95,0.00,,,0.00,meteohub,2013-01-05 07:52:00,
2013-01-05 02:57:00,56.1,54.7,30.22,ENE,73,3.0,8.0,95,0.00,,,0.00,meteohub,2013-01-05 07:57:00,
2013-01-05 03:02:00,56.1,54.7,30.22,NE,52,0.0,8.0,95,0.00,,,0.00,meteohub,2013-01-05 08:02:00,
2013-01-05 03:07:00,56.1,54.7,30.22,ENE,67,3.0,8.0,95,0.00,,,0.00,meteohub,2013-01-05 08:07:00,
2013-01-05 03:12:00,56.1,54.7,30.22,ENE,71,1.0,7.0,95,0.00,,,0.00,meteohub,2013-01-05 08:12:00,
2013-01-05 03:17:00,56.1,54.7,30.22,NE,54,3.0,4.0,95,0.00,,,0.00,meteohub,2013-01-05 08:17:00,
2013-01-05 03:22:00,56.1,54.7,30.22,ENE,57,2.0,5.0,95,0.00,,,0.00,meteohub,2013-01-05 08:22:00,
2013-01-05 03:27:00,56.1,54.7,30.22,NE,55,2.0,5.0,95,0.00,,,0.00,meteohub,2013-01-05 08:27:00,
2013-01-05 03:32:00,55.9,54.5,30.22,NNE,13,2.0,5.0,95,0.00,,,0.00,meteohub,2013-01-05 08:32:00,
2013-01-05 03:37:00,55.9,54.5,30.22,NE,54,3.0,5.0,95,0.00,,,0.00,meteohub,2013-01-05 08:37:00,
2013-01-05 03:42:00,55.9,54.9,30.22,ENE,70,2.0,6.0,96,0.00,,,0.00,meteohub,2013-01-05 08:42:00,
2013-01-05 03:47:00,55.9,54.9,30.22,NE,48,1.0,6.0,96,0.00,,,0.00,meteohub,2013-01-05 08:47:00,
2013-01-05 03:52:00,55.8,54.7,30.22,NNE,29,3.0,7.0,96,0.00,,,0.00,meteohub,2013-01-05 08:52:00,
2013-01-05 03:57:00,55.8,54.7,30.22,NE,51,2.0,7.0,96,0.00,,,0.00,meteohub,2013-01-05 08:57:00,
2013-01-05 04:02:00,55.6,54.5,30.22,ENE,63,1.0,5.0,96,0.00,,,0.00,meteohub,2013-01-05 09:02:00,
2013-01-05 04:07:00,55.6,54.5,30.22,ENE,63,1.0,5.0,96,0.00,,,0.00,meteohub,2013-01-05 09:07:00,
2013-01-05 04:12:00,55.6,54.5,30.22,ENE,59,3.0,5.0,96,0.00,,,0.00,meteohub,2013-01-05 09:12:00,
2013-01-05 04:17:00,55.6,54.5,30.22,ENE,67,5.0,5.0,96,0.00,,,0.00,meteohub,2013-01-05 09:17:00,
2013-01-05 04:22:00,55.6,54.5,30.22,ENE,71,2.0,6.0,96,0.00,,,0.00,meteohub,2013-01-05 09:22:00,
2013-01-05 04:27:00,55.6,54.5,30.23,NNE,26,2.0,6.0,96,0.00,,,0.00,meteohub,2013-01-05 09:27:00,
2013-01-05 04:32:00,55.6,54.5,30.23,ESE,103,1.0,6.0,96,0.00,,,0.00,meteohub,2013-01-05 09:32:00,
2013-01-05 04:37:00,55.4,54.3,30.23,NE,35,4.0,10.0,96,0.00,,,0.00,meteohub,2013-01-05 09:37:00,
2013-01-05 04:42:00,55.4,54.3,30.23,ENE,65,4.0,10.0,96,0.00,,,0.00,meteohub,2013-01-05 09:42:00,
2013-01-05 04:47:00,55.4,54.3,30.23,NE,37,1.0,10.0,96,0.00,,,0.00,meteohub,2013-01-05 09:47:00,
2013-01-05 04:52:00,55.6,54.5,30.23,NE,47,3.0,9.0,96,0.00,,,0.00,meteohub,2013-01-05 09:52:00,
2013-01-05 04:57:00,55.4,54.3,30.23,NNE,30,1.0,7.0,96,0.00,,,0.00,meteohub,2013-01-05 09:57:00,
2013-01-05 05:02:00,55.6,54.5,30.23,NE,52,3.0,6.0,96,0.00,,,0.00,meteohub,2013-01-05 10:02:00,
2013-01-05 05:07:00,55.6,54.5,30.23,ENE,63,2.0,5.0,96,0.00,,,0.00,meteohub,2013-01-05 10:07:00,
2013-01-05 05:12:00,55.6,54.5,30.23,ENE,78,4.0,5.0,96,0.00,,,0.00,meteohub,2013-01-05 10:12:00,
2013-01-05 05:17:00,55.4,54.3,30.23,East,88,3.0,6.0,96,0.00,,,0.00,meteohub,2013-01-05 10:17:00,
2013-01-05 05:22:00,55.4,54.3,30.23,East,85,3.0,6.0,96,0.00,,,0.00,meteohub,2013-01-05 10:22:00,
2013-01-05 05:27:00,55.4,54.3,30.24,ENE,64,3.0,6.0,96,0.00,,,0.00,meteohub,2013-01-05 10:27:00,
2013-01-05 05:32:00,55.4,54.3,30.24,East,84,1.0,7.0,96,0.00,,,0.00,meteohub,2013-01-05 10:32:00,
2013-01-05 05:37:00,55.2,54.1,30.24,NE,36,5.0,8.0,96,0.00,,,0.00,meteohub,2013-01-05 10:37:00,
2013-01-05 05:42:00,55.2,54.1,30.23,ENE,74,2.0,12.0,96,0.00,,,0.00,meteohub,2013-01-05 10:42:00,
2013-01-05 05:47:00,55.2,54.1,30.23,NE,55,3.0,12.0,96,0.00,,,0.00,meteohub,2013-01-05 10:47:00,
2013-01-05 05:52:00,55.2,54.1,30.24,NE,55,4.0,12.0,96,0.00,,,0.00,meteohub,2013-01-05 10:52:00,
2013-01-05 05:57:00,55.0,54.0,30.24,NE,45,2.0,8.0,96,0.00,,,0.00,meteohub,2013-01-05 10:57:00,
2013-01-05 06:02:00,55.0,54.0,30.24,East,80,2.0,8.0,96,0.00,,,0.00,meteohub,2013-01-05 11:02:00,
2013-01-05 06:07:00,55.0,54.0,30.23,East,84,0.0,6.0,96,0.00,,,0.00,meteohub,2013-01-05 11:07:00,
2013-01-05 06:12:00,55.0,54.0,30.24,ENE,77,2.0,6.0,96,0.00,,,0.00,meteohub,2013-01-05 11:12:00,
2013-01-05 06:17:00,55.0,54.0,30.24,ENE,74,1.0,4.0,96,0.00,,,0.00,meteohub,2013-01-05 11:17:00,
2013-01-05 06:22:00,55.0,54.0,30.24,ENE,70,2.0,4.0,96,0.00,,,0.00,meteohub,2013-01-05 11:22:00,
2013-01-05 06:27:00,55.0,54.0,30.24,East,79,1.0,4.0,96,0.00,,,0.00,meteohub,2013-01-05 11:27:00,
2013-01-05 06:32:00,54.9,53.8,30.24,ENE,70,2.0,5.0,96,0.00,,,0.00,meteohub,2013-01-05 11:32:00,
2013-01-05 06:37:00,54.9,53.4,30.24,East,80,2.0,5.0,95,0.00,,,0.00,meteohub,2013-01-05 11:37:00,
2013-01-05 06:42:00,54.9,53.2,30.24,ENE,75,7.0,7.0,94,0.00,,,0.00,meteohub,2013-01-05 11:42:00,
2013-01-05 06:47:00,54.9,52.9,30.24,ENE,67,1.0,8.0,93,0.00,,,0.00,meteohub,2013-01-05 11:47:00,
2013-01-05 06:52:00,55.0,52.7,30.24,ENE,67,1.0,8.0,92,0.00,,,0.00,meteohub,2013-01-05 11:52:00,
2013-01-05 06:57:00,54.9,52.3,30.24,NE,55,4.0,8.0,91,0.00,,,0.00,meteohub,2013-01-05 11:57:00,
2013-01-05 07:02:00,54.9,52.0,30.24,NE,36,3.0,7.0,90,0.00,,,0.00,meteohub,2013-01-05 12:02:00,
2013-01-05 07:07:00,55.0,51.6,30.25,NE,55,4.0,8.0,88,0.00,,,0.00,meteohub,2013-01-05 12:07:00,
2013-01-05 07:12:00,55.0,51.3,30.25,ENE,59,3.0,8.0,87,0.00,,,0.00,meteohub,2013-01-05 12:12:00,
2013-01-05 07:17:00,55.0,50.9,30.26,ENE,71,2.0,9.0,86,0.00,,,0.00,meteohub,2013-01-05 12:17:00,
2013-01-05 07:22:00,55.0,50.9,30.25,ENE,57,2.0,10.0,86,0.00,,,0.00,meteohub,2013-01-05 12:22:00,
2013-01-05 07:27:00,55.0,51.3,30.25,ENE,71,1.0,10.0,87,0.00,,,0.00,meteohub,2013-01-05 12:27:00,
2013-01-05 07:32:00,55.0,50.9,30.26,ENE,78,4.0,7.0,86,0.00,,,0.00,meteohub,2013-01-05 12:32:00,
2013-01-05 07:37:00,55.0,50.9,30.26,East,86,1.0,8.0,86,0.00,,,0.00,meteohub,2013-01-05 12:37:00,
2013-01-05 07:42:00,55.0,51.6,30.26,ENE,65,3.0,8.0,88,0.00,,,0.00,meteohub,2013-01-05 12:42:00,
2013-01-05 07:47:00,55.0,51.3,30.27,ENE,64,2.0,8.0,87,0.00,,,0.00,meteohub,2013-01-05 12:47:00,
2013-01-05 07:52:00,54.9,51.4,30.27,NE,55,4.0,7.0,88,0.00,,,0.00,meteohub,2013-01-05 12:52:00,
2013-01-05 07:57:00,54.9,51.4,30.27,NE,46,3.0,7.0,88,0.00,,,0.00,meteohub,2013-01-05 12:57:00,
2013-01-05 08:02:00,54.7,51.3,30.27,NE,50,8.0,8.0,88,0.00,,,0.00,meteohub,2013-01-05 13:02:00,
2013-01-05 08:07:00,54.7,51.3,30.27,East,90,5.0,8.0,88,0.00,,,0.00,meteohub,2013-01-05 13:07:00,
2013-01-05 08:12:00,54.7,51.3,30.28,East,80,7.0,8.0,88,0.00,,,0.00,meteohub,2013-01-05 13:12:00,
2013-01-05 08:17:00,54.5,51.3,30.28,ENE,78,3.0,8.0,89,0.00,,,0.00,meteohub,2013-01-05 13:17:00,
2013-01-05 08:22:00,54.7,51.4,30.28,NE,55,3.0,7.0,89,0.00,,,0.00,meteohub,2013-01-05 13:22:00,
2013-01-05 08:27:00,54.7,51.4,30.28,East,81,2.0,7.0,89,0.00,,,0.00,meteohub,2013-01-05 13:27:00,
2013-01-05 08:32:00,54.7,51.4,30.28,East,84,1.0,8.0,89,0.00,,,0.00,meteohub,2013-01-05 13:32:00,
2013-01-05 08:37:00,54.7,51.4,30.28,NNE,30,5.0,8.0,89,0.00,,,0.00,meteohub,2013-01-05 13:37:00,
2013-01-05 08:42:00,54.7,51.3,30.28,ENE,59,5.0,8.0,88,0.00,,,0.00,meteohub,2013-01-05 13:42:00,
2013-01-05 08:47:00,54.7,51.4,30.28,ENE,62,1.0,8.0,89,0.00,,,0.00,meteohub,2013-01-05 13:47:00,
2013-01-05 08:52:00,55.0,51.8,30.29,NE,38,4.0,8.0,89,0.00,,,0.00,meteohub,2013-01-05 13:52:00,
2013-01-05 08:57:00,55.2,51.8,30.29,NE,49,3.0,8.0,88,0.00,,,0.00,meteohub,2013-01-05 13:57:00,
2013-01-05 09:02:00,55.4,52.0,30.29,ENE,59,5.0,8.0,88,0.00,,,0.00,meteohub,2013-01-05 14:02:00,
2013-01-05 09:07:00,55.6,52.2,30.29,ENE,61,3.0,10.0,88,0.00,,,0.00,meteohub,2013-01-05 14:07:00,
2013-01-05 09:12:00,55.6,51.8,30.29,ENE,72,4.0,10.0,87,0.00,,,0.00,meteohub,2013-01-05 14:12:00,
2013-01-05 09:17:00,55.6,51.8,30.28,ENE,71,5.0,10.0,87,0.00,,,0.00,meteohub,2013-01-05 14:17:00,
2013-01-05 09:22:00,55.8,52.0,30.28,East,80,6.0,10.0,87,0.00,,,0.00,meteohub,2013-01-05 14:22:00,
2013-01-05 09:27:00,56.1,52.7,30.28,ENE,71,1.0,10.0,88,0.00,,,0.00,meteohub,2013-01-05 14:27:00,
2013-01-05 09:32:00,56.3,52.2,30.29,ENE,65,5.0,10.0,86,0.00,,,0.00,meteohub,2013-01-05 14:32:00,
2013-01-05 09:37:00,56.5,52.3,30.29,East,79,2.0,11.0,86,0.00,,,0.00,meteohub,2013-01-05 14:37:00,
2013-01-05 09:42:00,56.8,52.3,30.29,NE,44,5.0,11.0,85,0.00,,,0.00,meteohub,2013-01-05 14:42:00,
2013-01-05 09:47:00,56.8,52.3,30.29,East,88,5.0,11.0,85,0.00,,,0.00,meteohub,2013-01-05 14:47:00,
2013-01-05 09:52:00,57.4,53.2,30.29,ENE,70,3.0,10.0,86,0.00,,,0.00,meteohub,2013-01-05 14:52:00,
2013-01-05 09:57:00,57.4,52.5,30.28,East,81,3.0,10.0,84,0.00,,,0.00,meteohub,2013-01-05 14:57:00,
2013-01-05 10:02:00,57.6,52.7,30.28,East,93,5.0,10.0,84,0.00,,,0.00,meteohub,2013-01-05 15:02:00,
2013-01-05 10:07:00,57.7,53.2,30.28,ENE,73,4.0,10.0,85,0.00,,,0.00,meteohub,2013-01-05 15:07:00,
2013-01-05 10:12:00,58.3,53.4,30.28,ENE,60,5.0,9.0,84,0.00,,,0.00,meteohub,2013-01-05 15:12:00,
2013-01-05 10:17:00,58.5,53.2,30.28,ENE,78,3.0,10.0,83,0.00,,,0.00,meteohub,2013-01-05 15:17:00,
2013-01-05 10:22:00,58.8,53.6,30.28,ENE,59,3.0,12.0,83,0.00,,,0.00,meteohub,2013-01-05 15:22:00,
2013-01-05 10:27:00,59.2,53.6,30.27,ENE,61,5.0,12.0,82,0.00,,,0.00,meteohub,2013-01-05 15:27:00,
2013-01-05 10:32:00,59.5,54.0,30.27,NE,47,2.0,11.0,82,0.00,,,0.00,meteohub,2013-01-05 15:32:00,
2013-01-05 10:37:00,59.5,53.4,30.27,NE,54,3.0,11.0,80,0.00,,,0.00,meteohub,2013-01-05 15:37:00,
2013-01-05 10:42:00,60.1,54.3,30.27,ENE,59,5.0,14.0,81,0.00,,,0.00,meteohub,2013-01-05 15:42:00,
2013-01-05 10:47:00,60.4,54.3,30.27,ENE,64,2.0,14.0,80,0.00,,,0.00,meteohub,2013-01-05 15:47:00,
2013-01-05 10:52:00,61.0,54.7,30.27,SE,125,2.0,14.0,80,0.00,,,0.00,meteohub,2013-01-05 15:52:00,
2013-01-05 10:57:00,61.5,54.9,30.27,ENE,76,8.0,12.0,79,0.00,,,0.00,meteohub,2013-01-05 15:57:00,
2013-01-05 11:02:00,61.5,54.7,30.27,ENE,69,5.0,8.0,78,0.00,,,0.00,meteohub,2013-01-05 16:02:00,
2013-01-05 11:07:00,61.9,54.9,30.27,SSE,150,3.0,10.0,78,0.00,,,0.00,meteohub,2013-01-05 16:07:00,
2013-01-05 11:12:00,62.1,55.4,30.26,ESE,111,3.0,10.0,79,0.00,,,0.00,meteohub,2013-01-05 16:12:00,
2013-01-05 11:17:00,62.1,55.0,30.26,East,90,2.0,10.0,78,0.00,,,0.00,meteohub,2013-01-05 16:17:00,
2013-01-05 11:22:00,62.2,55.2,30.26,SE,128,1.0,10.0,78,0.00,,,0.00,meteohub,2013-01-05 16:22:00,
2013-01-05 11:27:00,62.2,55.2,30.26,ESE,106,2.0,8.0,78,0.00,,,0.00,meteohub,2013-01-05 16:27:00,
2013-01-05 11:32:00,62.6,55.9,30.25,NE,52,3.0,8.0,79,0.00,,,0.00,meteohub,2013-01-05 16:32:00,
2013-01-05 11:37:00,63.1,56.1,30.25,ESE,109,1.0,8.0,78,0.00,,,0.00,meteohub,2013-01-05 16:37:00,
2013-01-05 11:42:00,63.7,55.9,30.25,ENE,76,4.0,7.0,76,0.00,,,0.00,meteohub,2013-01-05 16:42:00,
2013-01-05 11:47:00,63.9,56.8,30.24,ESE,114,7.0,8.0,78,0.00,,,0.00,meteohub,2013-01-05 16:47:00,
2013-01-05 11:52:00,64.0,56.7,30.24,ESE,115,8.0,11.0,77,0.00,,,0.00,meteohub,2013-01-05 16:52:00,
2013-01-05 11:57:00,64.2,56.8,30.24,ENE,66,4.0,11.0,77,0.00,,,0.00,meteohub,2013-01-05 16:57:00,
2013-01-05 12:02:00,64.4,57.0,30.23,East,96,5.0,11.0,77,0.00,,,0.00,meteohub,2013-01-05 17:02:00,
2013-01-05 12:07:00,64.8,57.0,30.23,ESE,114,0.0,9.0,76,0.00,,,0.00,meteohub,2013-01-05 17:07:00,
2013-01-05 12:12:00,64.9,57.6,30.23,SSE,153,3.0,9.0,77,0.00,,,0.00,meteohub,2013-01-05 17:12:00,
2013-01-05 12:17:00,65.1,57.4,30.22,SE,126,3.0,8.0,76,0.00,,,0.00,meteohub,2013-01-05 17:17:00,
2013-01-05 12:22:00,65.1,57.4,30.22,SSE,161,4.0,8.0,76,0.00,,,0.00,meteohub,2013-01-05 17:22:00,
2013-01-05 12:27:00,65.8,58.1,30.21,SSE,153,4.0,8.0,76,0.00,,,0.00,meteohub,2013-01-05 17:27:00,
2013-01-05 12:32:00,66.4,57.9,30.21,ESE,111,4.0,8.0,74,0.00,,,0.00,meteohub,2013-01-05 17:32:00,
2013-01-05 12:37:00,66.4,58.6,30.21,SSE,152,2.0,8.0,76,0.00,,,0.00,meteohub,2013-01-05 17:37:00,
2013-01-05 12:42:00,66.6,58.1,30.21,NNE,28,2.0,9.0,74,0.00,,,0.00,meteohub,2013-01-05 17:42:00,
2013-01-05 12:47:00,66.7,58.1,30.21,SE,138,3.0,9.0,74,0.00,,,0.00,meteohub,2013-01-05 17:47:00,
2013-01-05 12:52:00,67.3,58.6,30.20,ESE,115,3.0,7.0,74,0.00,,,0.00,meteohub,2013-01-05 17:52:00,
2013-01-05 12:57:00,67.6,58.6,30.19,SSE,159,2.0,7.0,73,0.00,,,0.00,meteohub,2013-01-05 17:57:00,
2013-01-05 13:02:00,68.4,59.4,30.19,SE,136,1.0,7.0,73,0.00,,,0.00,meteohub,2013-01-05 18:02:00,
2013-01-05 13:07:00,68.4,59.0,30.19,ENE,63,5.0,6.0,72,0.00,,,0.00,meteohub,2013-01-05 18:07:00,
2013-01-05 13:12:00,68.2,58.8,30.19,SE,125,2.0,8.0,72,0.00,,,0.00,meteohub,2013-01-05 18:12:00,
2013-01-05 13:17:00,68.4,59.4,30.19,ESE,114,2.0,8.0,73,0.00,,,0.00,meteohub,2013-01-05 18:17:00,
2013-01-05 13:22:00,68.5,59.2,30.19,ESE,108,2.0,7.0,72,0.00,,,0.00,meteohub,2013-01-05 18:22:00,
2013-01-05 13:27:00,68.9,59.2,30.19,SSE,152,0.0,7.0,71,0.00,,,0.00,meteohub,2013-01-05 18:27:00,
2013-01-05 13:32:00,69.6,60.3,30.19,SE,132,2.0,7.0,72,0.00,,,0.00,meteohub,2013-01-05 18:32:00,
2013-01-05 13:37:00,70.5,60.3,30.18,East,81,0.0,7.0,70,0.00,,,0.00,meteohub,2013-01-05 18:37:00,
2013-01-05 13:42:00,71.4,60.3,30.18,East,86,1.0,5.0,68,0.00,,,0.00,meteohub,2013-01-05 18:42:00,
2013-01-05 13:47:00,72.0,59.9,30.18,SSE,160,2.0,6.0,66,0.00,,,0.00,meteohub,2013-01-05 18:47:00,
2013-01-05 13:52:00,71.2,59.7,30.18,ESE,114,4.0,6.0,67,0.00,,,0.00,meteohub,2013-01-05 18:52:00,
2013-01-05 13:57:00,70.5,59.9,30.18,SE,126,2.0,6.0,69,0.00,,,0.00,meteohub,2013-01-05 18:57:00,
2013-01-05 14:02:00,70.5,60.3,30.17,SSW,192,2.0,6.0,70,0.00,,,0.00,meteohub,2013-01-05 19:02:00,
2013-01-05 14:07:00,70.3,59.7,30.17,SE,138,0.0,5.0,69,0.00,,,0.00,meteohub,2013-01-05 19:07:00,
2013-01-05 14:12:00,70.5,60.3,30.17,SE,140,0.0,4.0,70,0.00,,,0.00,meteohub,2013-01-05 19:12:00,
2013-01-05 14:17:00,70.9,60.3,30.17,SE,129,1.0,4.0,69,0.00,,,0.00,meteohub,2013-01-05 19:17:00,
2013-01-05 14:22:00,70.9,60.3,30.17,SE,124,0.0,4.0,69,0.00,,,0.00,meteohub,2013-01-05 19:22:00,
2013-01-05 14:27:00,71.1,60.4,30.17,SE,124,0.0,4.0,69,0.00,,,0.00,meteohub,2013-01-05 19:27:00,
2013-01-05 14:32:00,71.1,60.4,30.17,SE,124,1.0,3.0,69,0.00,,,0.00,meteohub,2013-01-05 19:32:00,
2013-01-05 14:37:00,70.9,60.6,30.16,SE,142,1.0,2.0,70,0.00,,,0.00,meteohub,2013-01-05 19:37:00,
2013-01-05 14:42:00,70.7,60.8,30.16,South,177,0.0,2.0,71,0.00,,,0.00,meteohub,2013-01-05 19:42:00,
2013-01-05 14:47:00,70.9,61.0,30.16,South,173,1.0,3.0,71,0.00,,,0.00,meteohub,2013-01-05 19:47:00,
2013-01-05 14:52:00,70.9,61.3,30.16,SSE,165,1.0,3.0,72,0.00,,,0.00,meteohub,2013-01-05 19:52:00,
2013-01-05 14:57:00,71.1,61.5,30.16,SSE,165,0.0,3.0,72,0.00,,,0.00,meteohub,2013-01-05 19:57:00,
2013-01-05 15:02:00,71.2,61.3,30.16,SSE,165,1.0,3.0,71,0.00,,,0.00,meteohub,2013-01-05 20:02:00,
2013-01-05 15:07:00,71.2,61.3,30.16,SSE,165,1.0,3.0,71,0.00,,,0.00,meteohub,2013-01-05 20:07:00,
2013-01-05 15:12:00,71.2,61.3,30.17,SSE,165,1.0,2.0,71,0.00,,,0.00,meteohub,2013-01-05 20:12:00,
2013-01-05 15:17:00,71.2,61.7,30.17,SSE,165,0.0,2.0,72,0.00,,,0.00,meteohub,2013-01-05 20:17:00,
2013-01-05 15:22:00,71.2,61.7,30.17,SSE,165,0.0,2.0,72,0.00,,,0.00,meteohub,2013-01-05 20:22:00,
2013-01-05 15:27:00,71.4,62.2,30.17,SSE,165,0.0,2.0,73,0.00,,,0.00,meteohub,2013-01-05 20:27:00,
2013-01-05 15:32:00,71.2,62.1,30.17,South,173,1.0,1.0,73,0.00,,,0.00,meteohub,2013-01-05 20:32:00,
2013-01-05 15:37:00,71.1,61.9,30.17,SSW,199,1.0,2.0,73,0.00,,,0.00,meteohub,2013-01-05 20:37:00,
2013-01-05 15:42:00,70.3,61.7,30.17,WSW,247,1.0,2.0,74,0.00,,,0.00,meteohub,2013-01-05 20:42:00,
2013-01-05 15:47:00,69.8,61.5,30.17,WSW,248,1.0,2.0,75,0.00,,,0.00,meteohub,2013-01-05 20:47:00,
2013-01-05 15:52:00,69.4,61.5,30.17,WSW,248,1.0,2.0,76,0.00,,,0.00,meteohub,2013-01-05 20:52:00,
2013-01-05 15:57:00,69.1,61.2,30.17,WSW,249,1.0,2.0,76,0.00,,,0.00,meteohub,2013-01-05 20:57:00,
2013-01-05 16:02:00,68.5,61.0,30.18,WSW,249,1.0,3.0,77,0.00,,,0.00,meteohub,2013-01-05 21:02:00,
2013-01-05 16:07:00,68.2,60.3,30.18,West,273,0.0,3.0,76,0.00,,,0.00,meteohub,2013-01-05 21:07:00,
2013-01-05 16:12:00,67.6,60.3,30.18,WNW,290,1.0,3.0,77,0.00,,,0.00,meteohub,2013-01-05 21:12:00,
2013-01-05 16:17:00,67.3,60.3,30.17,WNW,290,1.0,3.0,78,0.00,,,0.00,meteohub,2013-01-05 21:17:00,
2013-01-05 16:22:00,67.1,60.1,30.17,WNW,290,1.0,3.0,78,0.00,,,0.00,meteohub,2013-01-05 21:22:00,
2013-01-05 16:27:00,66.9,60.3,30.18,WNW,290,2.0,3.0,79,0.00,,,0.00,meteohub,2013-01-05 21:27:00,
2013-01-05 16:32:00,66.6,59.9,30.17,WNW,290,0.0,3.0,79,0.00,,,0.00,meteohub,2013-01-05 21:32:00,
2013-01-05 16:37:00,66.4,60.1,30.17,WNW,290,0.0,3.0,80,0.00,,,0.00,meteohub,2013-01-05 21:37:00,
2013-01-05 16:42:00,66.2,59.9,30.18,WNW,290,1.0,3.0,80,0.00,,,0.00,meteohub,2013-01-05 21:42:00,
2013-01-05 16:47:00,66.0,60.1,30.18,WNW,290,1.0,2.0,81,0.00,,,0.00,meteohub,2013-01-05 21:47:00,
2013-01-05 16:52:00,66.0,60.1,30.17,WNW,290,0.0,2.0,81,0.00,,,0.00,meteohub,2013-01-05 21:52:00,
2013-01-05 16:57:00,66.0,60.1,30.17,WNW,290,0.0,2.0,81,0.00,,,0.00,meteohub,2013-01-05 21:57:00,
2013-01-05 17:02:00,66.0,60.4,30.17,WNW,290,0.0,2.0,82,0.00,,,0.00,meteohub,2013-01-05 22:02:00,
2013-01-05 17:07:00,66.0,60.1,30.17,WNW,290,0.0,2.0,81,0.00,,,0.00,meteohub,2013-01-05 22:07:00,
2013-01-05 17:12:00,66.0,60.4,30.17,WNW,290,0.0,1.0,82,0.00,,,0.00,meteohub,2013-01-05 22:12:00,
2013-01-05 17:17:00,66.0,60.6,30.18,WNW,290,1.0,1.0,83,0.00,,,0.00,meteohub,2013-01-05 22:17:00,
2013-01-05 17:22:00,66.0,60.4,30.18,WNW,290,0.0,2.0,82,0.00,,,0.00,meteohub,2013-01-05 22:22:00,
2013-01-05 17:27:00,66.0,60.4,30.18,WNW,290,0.0,2.0,82,0.00,,,0.00,meteohub,2013-01-05 22:27:00,
2013-01-05 17:32:00,66.0,60.6,30.18,WNW,290,0.0,2.0,83,0.00,,,0.00,meteohub,2013-01-05 22:32:00,
2013-01-05 17:37:00,66.0,60.4,30.19,WNW,290,1.0,2.0,82,0.00,,,0.00,meteohub,2013-01-05 22:37:00,
2013-01-05 17:42:00,66.0,60.6,30.18,WNW,290,0.0,2.0,83,0.00,,,0.00,meteohub,2013-01-05 22:42:00,
2013-01-05 17:47:00,65.8,60.3,30.19,WNW,290,0.0,2.0,82,0.00,,,0.00,meteohub,2013-01-05 22:47:00,
2013-01-05 17:52:00,65.7,60.4,30.19,WNW,290,1.0,2.0,83,0.00,,,0.00,meteohub,2013-01-05 22:52:00,
2013-01-05 17:57:00,65.7,60.4,30.19,WNW,290,0.0,2.0,83,0.00,,,0.00,meteohub,2013-01-05 22:57:00,
2013-01-05 18:02:00,65.7,60.6,30.19,WNW,290,0.0,2.0,84,0.00,,,0.00,meteohub,2013-01-05 23:02:00,
2013-01-05 18:07:00,65.7,60.6,30.19,WNW,290,0.0,1.0,84,0.00,,,0.00,meteohub,2013-01-05 23:07:00,
2013-01-05 18:12:00,65.5,60.8,30.19,WNW,290,0.0,1.0,85,0.00,,,0.00,meteohub,2013-01-05 23:12:00,
2013-01-05 18:17:00,65.5,60.8,30.19,WNW,290,0.0,1.0,85,0.00,,,0.00,meteohub,2013-01-05 23:17:00,
2013-01-05 18:22:00,65.3,60.6,30.19,WNW,290,0.0,1.0,85,0.00,,,0.00,meteohub,2013-01-05 23:22:00,
2013-01-05 18:27:00,65.3,61.0,30.19,WNW,290,0.0,1.0,86,0.00,,,0.00,meteohub,2013-01-05 23:27:00,
2013-01-05 18:32:00,65.1,60.8,30.19,WNW,290,0.0,1.0,86,0.00,,,0.00,meteohub,2013-01-05 23:32:00,
2013-01-05 18:37:00,65.1,60.8,30.19,WNW,290,1.0,1.0,86,0.00,,,0.00,meteohub,2013-01-05 23:37:00,
2013-01-05 18:42:00,65.1,60.8,30.19,WNW,290,0.0,1.0,86,0.00,,,0.00,meteohub,2013-01-05 23:42:00,
2013-01-05 18:47:00,65.1,60.8,30.19,WNW,290,0.0,1.0,86,0.00,,,0.00,meteohub,2013-01-05 23:47:00,
2013-01-05 18:52:00,64.9,60.6,30.19,WNW,290,0.0,1.0,86,0.00,,,0.00,meteohub,2013-01-05 23:52:00,
2013-01-05 18:57:00,64.9,60.6,30.20,WNW,290,1.0,1.0,86,0.00,,,0.00,meteohub,2013-01-05 23:57:00,
2013-01-05 19:02:00,64.9,60.6,30.20,WNW,290,1.0,2.0,86,0.00,,,0.00,meteohub,2013-01-06 00:02:00,
2013-01-05 19:07:00,64.9,60.6,30.21,WNW,290,1.0,2.0,86,0.00,,,0.00,meteohub,2013-01-06 00:07:00,
2013-01-05 19:13:00,64.9,60.6,30.21,WNW,290,0.0,2.0,86,0.00,,,0.00,meteohub,2013-01-06 00:13:00,
2013-01-05 19:19:00,64.9,60.6,30.21,WNW,290,0.0,2.0,86,0.00,,,0.00,meteohub,2013-01-06 00:19:00,
2013-01-05 19:25:00,64.8,60.4,30.21,WNW,290,0.0,2.0,86,0.00,,,0.00,meteohub,2013-01-06 00:25:00,
2013-01-05 19:31:00,64.8,60.4,30.21,WNW,290,0.0,2.0,86,0.00,,,0.00,meteohub,2013-01-06 00:31:00,
2013-01-05 19:37:00,64.8,60.8,30.21,WNW,290,0.0,2.0,87,0.00,,,0.00,meteohub,2013-01-06 00:37:00,
2013-01-05 19:42:00,64.8,60.8,30.21,WNW,290,0.0,2.0,87,0.00,,,0.00,meteohub,2013-01-06 00:42:00,
2013-01-05 19:47:00,64.6,60.6,30.21,WNW,290,1.0,2.0,87,0.00,,,0.00,meteohub,2013-01-06 00:47:00,
2013-01-05 19:52:00,64.6,60.6,30.21,WNW,290,0.0,2.0,87,0.00,,,0.00,meteohub,2013-01-06 00:52:00,
2013-01-05 19:57:00,64.6,60.6,30.21,WNW,290,0.0,2.0,87,0.00,,,0.00,meteohub,2013-01-06 00:57:00,
2013-01-05 20:02:00,64.6,60.6,30.21,WNW,290,2.0,2.0,87,0.00,,,0.00,meteohub,2013-01-06 01:02:00,
2013-01-05 20:07:00,64.6,60.6,30.21,WNW,290,0.0,2.0,87,0.00,,,0.00,meteohub,2013-01-06 01:07:00,
2013-01-05 20:12:00,64.6,60.6,30.21,WNW,290,0.0,2.0,87,0.00,,,0.00,meteohub,2013-01-06 01:12:00,
2013-01-05 20:17:00,64.4,60.4,30.21,NW,309,1.0,2.0,87,0.00,,,0.00,meteohub,2013-01-06 01:17:00,
2013-01-05 20:22:00,64.2,60.3,30.21,NW,309,0.0,3.0,87,0.00,,,0.00,meteohub,2013-01-06 01:22:00,
2013-01-05 20:27:00,64.2,60.3,30.21,NW,309,0.0,3.0,87,0.00,,,0.00,meteohub,2013-01-06 01:27:00,
2013-01-05 20:32:00,64.0,60.1,30.21,NW,309,1.0,2.0,87,0.00,,,0.00,meteohub,2013-01-06 01:32:00,
2013-01-05 20:37:00,64.0,60.1,30.21,NW,309,0.0,2.0,87,0.00,,,0.00,meteohub,2013-01-06 01:37:00,
2013-01-05 20:42:00,64.0,60.1,30.21,North,5,1.0,2.0,87,0.00,,,0.00,meteohub,2013-01-06 01:42:00,
2013-01-05 20:47:00,64.0,60.1,30.21,ENE,61,1.0,3.0,87,0.00,,,0.00,meteohub,2013-01-06 01:47:00,
2013-01-05 20:52:00,64.2,59.9,30.21,ENE,57,2.0,3.0,86,0.00,,,0.00,meteohub,2013-01-06 01:52:00,
2013-01-05 20:57:00,64.2,59.5,30.21,North,5,1.0,5.0,85,0.00,,,0.00,meteohub,2013-01-06 01:57:00,
2013-01-05 21:02:00,64.2,59.5,30.21,North,5,1.0,5.0,85,0.00,,,0.00,meteohub,2013-01-06 02:02:00,
2013-01-05 21:07:00,64.2,59.5,30.21,NNE,17,1.0,4.0,85,0.00,,,0.00,meteohub,2013-01-06 02:07:00,
2013-01-05 21:12:00,64.0,59.7,30.21,NE,54,3.0,4.0,86,0.00,,,0.00,meteohub,2013-01-06 02:12:00,
2013-01-05 21:17:00,63.9,59.5,30.21,NE,52,3.0,4.0,86,0.00,,,0.00,meteohub,2013-01-06 02:17:00,
2013-01-05 21:22:00,63.9,59.5,30.21,ENE,65,2.0,4.0,86,0.00,,,0.00,meteohub,2013-01-06 02:22:00,
2013-01-05 21:29:00,63.7,59.4,30.21,NE,38,2.0,5.0,86,0.00,,,0.00,meteohub,2013-01-06 02:29:00,
2013-01-05 21:35:00,63.5,59.5,30.21,NE,39,1.0,5.0,87,0.00,,,0.00,meteohub,2013-01-06 02:35:00,
2013-01-05 21:41:00,63.3,59.4,30.21,NE,39,2.0,3.0,87,0.00,,,0.00,meteohub,2013-01-06 02:41:00,
2013-01-05 21:47:00,63.3,59.4,30.21,NE,39,2.0,3.0,87,0.00,,,0.00,meteohub,2013-01-06 02:47:00,
2013-01-05 21:52:00,63.3,59.4,30.22,NE,41,0.0,3.0,87,0.00,,,0.00,meteohub,2013-01-06 02:52:00,
2013-01-05 21:57:00,63.5,59.9,30.22,NE,41,0.0,3.0,88,0.00,,,0.00,meteohub,2013-01-06 02:57:00,
2013-01-05 22:02:00,63.5,59.9,30.22,NE,41,0.0,3.0,88,0.00,,,0.00,meteohub,2013-01-06 03:02:00,
2013-01-05 22:07:00,63.5,59.9,30.22,NE,41,0.0,2.0,88,0.00,,,0.00,meteohub,2013-01-06 03:07:00,
2013-01-05 22:12:00,63.5,59.9,30.22,NE,41,0.0,2.0,88,0.00,,,0.00,meteohub,2013-01-06 03:12:00,
2013-01-05 22:17:00,63.5,59.5,30.21,NE,41,2.0,2.0,87,0.00,,,0.00,meteohub,2013-01-06 03:17:00,
2013-01-05 22:22:00,63.5,59.5,30.21,NE,40,1.0,3.0,87,0.00,,,0.00,meteohub,2013-01-06 03:22:00,
2013-01-05 22:27:00,63.7,59.7,30.21,NE,40,1.0,3.0,87,0.00,,,0.00,meteohub,2013-01-06 03:27:00,
2013-01-05 22:32:00,63.7,59.7,30.21,NE,40,0.0,3.0,87,0.00,,,0.00,meteohub,2013-01-06 03:32:00,
2013-01-05 22:37:00,63.7,59.7,30.21,NE,40,0.0,2.0,87,0.00,,,0.00,meteohub,2013-01-06 03:37:00,
2013-01-05 22:42:00,63.5,59.5,30.21,NE,40,0.0,2.0,87,0.00,,,0.00,meteohub,2013-01-06 03:42:00,
2013-01-05 22:47:00,63.5,59.5,30.21,NE,51,1.0,2.0,87,0.00,,,0.00,meteohub,2013-01-06 03:47:00,
2013-01-05 22:52:00,63.7,59.7,30.21,ENE,65,0.0,3.0,87,0.00,,,0.00,meteohub,2013-01-06 03:52:00,
2013-01-05 22:57:00,63.7,59.7,30.21,ENE,65,0.0,3.0,87,0.00,,,0.00,meteohub,2013-01-06 03:57:00,
2013-01-05 23:02:00,63.9,60.3,30.21,ENE,59,0.0,3.0,88,0.00,,,0.00,meteohub,2013-01-06 04:02:00,
2013-01-05 23:07:00,63.9,60.3,30.21,ENE,59,1.0,3.0,88,0.00,,,0.00,meteohub,2013-01-06 04:07:00,
2013-01-05 23:12:00,63.9,60.3,30.20,ENE,59,1.0,3.0,88,0.00,,,0.00,meteohub,2013-01-06 04:12:00,
2013-01-05 23:17:00,63.9,59.9,30.20,ENE,59,1.0,2.0,87,0.00,,,0.00,meteohub,2013-01-06 04:17:00,
2013-01-05 23:22:00,63.9,60.3,30.20,ENE,71,0.0,2.0,88,0.00,,,0.00,meteohub,2013-01-06 04:22:00,
2013-01-05 23:27:00,63.9,59.9,30.20,ENE,64,0.0,5.0,87,0.00,,,0.00,meteohub,2013-01-06 04:27:00,
2013-01-05 23:32:00,64.0,60.1,30.20,ENE,70,2.0,5.0,87,0.00,,,0.00,meteohub,2013-01-06 04:32:00,
2013-01-05 23:37:00,64.0,60.1,30.20,ENE,64,3.0,5.0,87,0.00,,,0.00,meteohub,2013-01-06 04:37:00,
2013-01-05 23:42:00,64.2,60.3,30.19,ENE,71,4.0,4.0,87,0.00,,,0.00,meteohub,2013-01-06 04:42:00,
2013-01-05 23:47:00,64.2,60.3,30.19,East,86,3.0,6.0,87,0.00,,,0.00,meteohub,2013-01-06 04:47:00,
2013-01-05 23:52:00,64.2,60.3,30.19,ENE,59,4.0,6.0,87,0.00,,,0.00,meteohub,2013-01-06 04:52:00,
2013-01-05 23:57:00,64.2,60.3,30.18,ENE,73,3.0,6.0,87,0.00,,,0.00,meteohub,2013-01-06 04:57:00,